Impacts METAR Board
IDs:

KFLL - Ft Lauderdale-Hollyw, FL, US

Updated at: 2100 UTC 06 Dec 2019
Potential Impact None Slight Moderate High
Time 06/09Z 06/10Z 06/11Z 06/12Z 06/13Z 06/14Z 06/15Z 06/16Z 06/17Z 06/18Z 06/19Z 06/20Z 06/21Z
Temp57 57 57 57 60 66 72 75 79 76 76 75 75
Dewpt50 51 52 52 54 56 58 58 59 59 59 59 59
Altim30.12 30.12 30.14 30.15 30.16 30.17 30.18 30.17 30.14 30.11 30.10 30.10 30.11
VIS10 10 10 10 10 10 10 10 10 10 10 10 10
CIG-- -- -- -- -- 250 250 -- -- -- -- -- --
CoverCLRCLRFEWSCTSCTBKNBKNSCTSCTSCTFEWFEWFEW
FltCatVFRVFRVFRVFRVFRVFRVFRVFRVFRVFRVFRVFRVFR
WX--------------------------
WDir330340330330330320330170120140150120140
WSpd6 4 5 3 5 5 5 5 6 4 7 8 7
WGst-- -- -- -- -- -- -- -- 19 -- -- -- --
Raw hourly METARs
KFLL 060853Z 33006KT 10SM CLR 14/10 A3012 RMK AO2 SLP200 T01390100 56003
KFLL 060953Z 34004KT 10SM CLR 14/11 A3012 RMK AO2 SLP198 T01390106
KFLL 061053Z 33005KT 10SM FEW250 14/11 A3014 RMK AO2 SLP206 T01390111
KFLL 061153Z 33003KT 10SM FEW040 SCT250 14/11 A3015 RMK AO2 SLP210 T01390111 10144 20139 53009
KFLL 061253Z 33005KT 10SM FEW045 SCT250 16/12 A3016 RMK AO2 SLP213 T01560122 $
KFLL 061353Z 32005KT 10SM FEW045 BKN250 19/13 A3017 RMK AO2 SLP217 T01890133 $
KFLL 061453Z 33005KT 10SM FEW045 BKN250 22/14 A3018 RMK AO2 SLP220 T02220144 51010 $
KFLL 061553Z 17005KT 10SM FEW045 SCT250 24/14 A3017 RMK AO2 SLP216 T02390144 $
KFLL 061653Z 12006G19KT 10SM SCT043 SCT050 26/15 A3014 RMK AO2 SLP206 T02610150 $
KFLL 061753Z 14004KT 10SM SCT042 SCT250 24/15 A3011 RMK AO2 SLP195 T02440150 10267 20139 58025 $
KFLL 061853Z 15007KT 10SM FEW042 FEW250 24/15 A3010 RMK AO2 SLP191 T02440150 $
KFLL 061953Z 12008KT 10SM FEW042 24/15 A3010 RMK AO2 SLP191 T02390150 $
KFLL 062053Z 14007KT 10SM FEW042 24/15 A3011 RMK AO2 SLP194 T02390150 55001 $



Page loaded:  21:21 UTC  |   01:21 PM Pacific  |   02:21 PM Mountain  |   03:21 PM Central  |   04:21 PM Eastern

 

ADVISORIES

FORECASTS

FORECASTS

OBSERVATIONS

USER TOOLS

ABOUT US